Whitestone, New York
Current Conditions -  °F | °C
As of 8:51 AM on Sunday 25 Jan 2015 (Local Time) from KLGA Reporting Station
Broken Clouds Broken Clouds  
Wind Chill: 29°   Ceiling: 5000
Heat Index: 37°   Visibility: 10mi
Dew Point: 27°   Wind: 12mph
Humidity: 67%   Direction: 240°WSW
Pressure: 29.71"   Gusts: NA
Location:  40.79°N, 73.82°W
Report Text: KLGA 251351Z 24010KT 10SM BKN050 03/M03 A2971 RMK AO2 SLP062 T00281028 $
Loading
Personal Weather Stations






























Interactive Weather Map New forecast layout! Learn more

10-Day Weather Forecast

Advertisements
Track Severe Weather on mobile